sensor_id;sensor_type;location;lat;lon;timestamp;P1;durP1;ratioP1;P2;durP2;ratioP2
12369;SDS011;6249;52.128;9.986;2023-04-26T00:02:45;10.57;;;2.10;;
12369;SDS011;6249;52.128;9.986;2023-04-26T00:06:05;11.30;;;2.37;;
12369;SDS011;6249;52.128;9.986;2023-04-26T00:09:28;13.13;;;2.80;;
12369;SDS011;6249;52.128;9.986;2023-04-26T00:12:51;19.23;;;2.50;;
12369;SDS011;6249;52.128;9.986;2023-04-26T00:16:12;11.20;;;2.60;;
12369;SDS011;6249;52.128;9.986;2023-04-26T00:19:36;7.30;;;2.20;;
12369;SDS011;6249;52.128;9.986;2023-04-26T00:22:57;9.93;;;2.70;;
12369;SDS011;6249;52.128;9.986;2023-04-26T00:26:18;13.47;;;2.67;;
12369;SDS011;6249;52.128;9.986;2023-04-26T00:29:38;9.80;;;2.00;;
12369;SDS011;6249;52.128;9.986;2023-04-26T00:32:59;10.53;;;2.43;;
12369;SDS011;6249;52.128;9.986;2023-04-26T00:36:19;13.87;;;2.33;;
12369;SDS011;6249;52.128;9.986;2023-04-26T00:39:42;17.37;;;2.50;;
12369;SDS011;6249;52.128;9.986;2023-04-26T00:43:06;23.10;;;3.93;;
12369;SDS011;6249;52.128;9.986;2023-04-26T00:46:26;14.77;;;2.63;;
12369;SDS011;6249;52.128;9.986;2023-04-26T00:49:52;8.80;;;2.90;;
12369;SDS011;6249;52.128;9.986;2023-04-26T00:53:13;27.57;;;3.20;;
12369;SDS011;6249;52.128;9.986;2023-04-26T00:56:37;15.37;;;4.00;;
12369;SDS011;6249;52.128;9.986;2023-04-26T00:59:59;8.33;;;2.83;;
12369;SDS011;6249;52.128;9.986;2023-04-26T01:03:22;9.30;;;2.83;;
12369;SDS011;6249;52.128;9.986;2023-04-26T01:06:46;12.33;;;2.40;;
12369;SDS011;6249;52.128;9.986;2023-04-26T01:10:06;8.07;;;2.90;;
12369;SDS011;6249;52.128;9.986;2023-04-26T01:13:30;17.70;;;3.50;;
12369;SDS011;6249;52.128;9.986;2023-04-26T01:16:53;16.97;;;3.07;;
12369;SDS011;6249;52.128;9.986;2023-04-26T01:20:18;13.50;;;3.30;;
12369;SDS011;6249;52.128;9.986;2023-04-26T01:23:39;13.10;;;3.30;;
12369;SDS011;6249;52.128;9.986;2023-04-26T01:27:00;21.90;;;3.33;;
12369;SDS011;6249;52.128;9.986;2023-04-26T01:30:24;15.30;;;3.53;;
12369;SDS011;6249;52.128;9.986;2023-04-26T01:33:46;12.17;;;3.47;;
12369;SDS011;6249;52.128;9.986;2023-04-26T01:37:07;12.00;;;3.30;;
12369;SDS011;6249;52.128;9.986;2023-04-26T01:40:28;15.37;;;3.73;;
12369;SDS011;6249;52.128;9.986;2023-04-26T01:43:48;18.87;;;3.17;;
12369;SDS011;6249;52.128;9.986;2023-04-26T01:47:09;12.43;;;3.47;;
12369;SDS011;6249;52.128;9.986;2023-04-26T01:50:32;24.00;;;3.60;;
12369;SDS011;6249;52.128;9.986;2023-04-26T01:53:53;11.13;;;3.70;;
12369;SDS011;6249;52.128;9.986;2023-04-26T01:57:13;10.17;;;3.70;;
12369;SDS011;6249;52.128;9.986;2023-04-26T02:00:34;18.43;;;3.67;;
12369;SDS011;6249;52.128;9.986;2023-04-26T02:03:55;16.33;;;3.47;;
12369;SDS011;6249;52.128;9.986;2023-04-26T02:07:18;12.93;;;3.43;;
12369;SDS011;6249;52.128;9.986;2023-04-26T02:10:39;14.20;;;3.00;;
12369;SDS011;6249;52.128;9.986;2023-04-26T02:14:01;12.60;;;3.77;;
12369;SDS011;6249;52.128;9.986;2023-04-26T02:17:25;24.10;;;3.37;;
12369;SDS011;6249;52.128;9.986;2023-04-26T02:20:46;13.20;;;3.87;;
12369;SDS011;6249;52.128;9.986;2023-04-26T02:24:09;9.13;;;3.23;;
12369;SDS011;6249;52.128;9.986;2023-04-26T02:27:30;9.77;;;3.00;;
12369;SDS011;6249;52.128;9.986;2023-04-26T02:30:51;14.70;;;3.30;;
12369;SDS011;6249;52.128;9.986;2023-04-26T02:34:16;15.33;;;3.40;;
12369;SDS011;6249;52.128;9.986;2023-04-26T02:37:36;20.83;;;3.30;;
12369;SDS011;6249;52.128;9.986;2023-04-26T02:41:00;12.83;;;3.17;;
12369;SDS011;6249;52.128;9.986;2023-04-26T02:44:22;7.60;;;2.90;;
12369;SDS011;6249;52.128;9.986;2023-04-26T02:47:42;14.20;;;2.97;;
12369;SDS011;6249;52.128;9.986;2023-04-26T02:51:03;14.77;;;4.07;;
12369;SDS011;6249;52.128;9.986;2023-04-26T02:54:24;19.20;;;3.50;;
12369;SDS011;6249;52.128;9.986;2023-04-26T02:57:45;9.47;;;3.17;;
12369;SDS011;6249;52.128;9.986;2023-04-26T03:01:05;14.83;;;3.73;;
12369;SDS011;6249;52.128;9.986;2023-04-26T03:04:30;16.70;;;4.20;;
12369;SDS011;6249;52.128;9.986;2023-04-26T03:07:53;11.27;;;4.07;;
12369;SDS011;6249;52.128;9.986;2023-04-26T03:11:16;15.87;;;3.93;;
12369;SDS011;6249;52.128;9.986;2023-04-26T03:14:36;11.93;;;3.10;;
12369;SDS011;6249;52.128;9.986;2023-04-26T03:17:59;14.10;;;3.93;;
12369;SDS011;6249;52.128;9.986;2023-04-26T03:21:20;17.87;;;3.73;;
12369;SDS011;6249;52.128;9.986;2023-04-26T03:24:49;11.23;;;3.40;;
12369;SDS011;6249;52.128;9.986;2023-04-26T03:28:12;18.73;;;4.20;;
12369;SDS011;6249;52.128;9.986;2023-04-26T03:31:35;11.30;;;3.57;;
12369;SDS011;6249;52.128;9.986;2023-04-26T03:34:55;15.60;;;3.80;;
12369;SDS011;6249;52.128;9.986;2023-04-26T03:38:18;16.47;;;4.53;;
12369;SDS011;6249;52.128;9.986;2023-04-26T03:41:41;11.83;;;3.50;;
12369;SDS011;6249;52.128;9.986;2023-04-26T03:45:03;16.90;;;3.90;;
12369;SDS011;6249;52.128;9.986;2023-04-26T03:48:24;13.73;;;4.57;;
12369;SDS011;6249;52.128;9.986;2023-04-26T03:51:47;17.17;;;6.30;;
12369;SDS011;6249;52.128;9.986;2023-04-26T03:55:08;15.83;;;4.80;;
12369;SDS011;6249;52.128;9.986;2023-04-26T03:58:30;11.63;;;3.90;;
12369;SDS011;6249;52.128;9.986;2023-04-26T04:01:53;19.43;;;4.30;;
12369;SDS011;6249;52.128;9.986;2023-04-26T04:05:14;25.73;;;4.80;;
12369;SDS011;6249;52.128;9.986;2023-04-26T04:08:35;20.67;;;5.50;;
12369;SDS011;6249;52.128;9.986;2023-04-26T04:11:58;27.70;;;5.70;;
12369;SDS011;6249;52.128;9.986;2023-04-26T04:15:18;22.40;;;5.30;;
12369;SDS011;6249;52.128;9.986;2023-04-26T04:18:40;13.27;;;5.20;;
12369;SDS011;6249;52.128;9.986;2023-04-26T04:22:03;18.57;;;6.17;;
12369;SDS011;6249;52.128;9.986;2023-04-26T04:25:28;22.90;;;6.03;;
12369;SDS011;6249;52.128;9.986;2023-04-26T04:28:51;22.33;;;5.10;;
12369;SDS011;6249;52.128;9.986;2023-04-26T04:32:14;15.73;;;5.10;;
12369;SDS011;6249;52.128;9.986;2023-04-26T04:35:34;19.97;;;6.27;;
12369;SDS011;6249;52.128;9.986;2023-04-26T04:38:57;13.80;;;5.43;;
12369;SDS011;6249;52.128;9.986;2023-04-26T04:42:17;20.97;;;5.90;;
12369;SDS011;6249;52.128;9.986;2023-04-26T04:45:41;12.90;;;5.40;;
12369;SDS011;6249;52.128;9.986;2023-04-26T04:49:01;19.00;;;6.70;;
12369;SDS011;6249;52.128;9.986;2023-04-26T04:52:22;14.57;;;6.10;;
12369;SDS011;6249;52.128;9.986;2023-04-26T04:55:45;15.70;;;5.33;;
12369;SDS011;6249;52.128;9.986;2023-04-26T04:59:06;12.13;;;5.43;;
12369;SDS011;6249;52.128;9.986;2023-04-26T05:02:31;26.17;;;5.10;;
12369;SDS011;6249;52.128;9.986;2023-04-26T05:05:52;17.53;;;4.47;;
12369;SDS011;6249;52.128;9.986;2023-04-26T05:09:12;17.80;;;6.60;;
12369;SDS011;6249;52.128;9.986;2023-04-26T05:12:33;14.83;;;4.33;;
12369;SDS011;6249;52.128;9.986;2023-04-26T05:15:59;16.73;;;5.00;;
12369;SDS011;6249;52.128;9.986;2023-04-26T05:19:20;15.27;;;4.33;;
12369;SDS011;6249;52.128;9.986;2023-04-26T05:22:40;10.27;;;4.10;;
12369;SDS011;6249;52.128;9.986;2023-04-26T05:26:04;18.00;;;4.17;;
12369;SDS011;6249;52.128;9.986;2023-04-26T05:29:28;9.23;;;3.83;;
12369;SDS011;6249;52.128;9.986;2023-04-26T05:32:52;13.60;;;4.20;;
12369;SDS011;6249;52.128;9.986;2023-04-26T05:36:15;21.40;;;5.00;;
12369;SDS011;6249;52.128;9.986;2023-04-26T05:39:36;21.80;;;4.67;;
12369;SDS011;6249;52.128;9.986;2023-04-26T05:42:56;26.60;;;5.30;;
12369;SDS011;6249;52.128;9.986;2023-04-26T05:46:17;25.30;;;4.80;;
12369;SDS011;6249;52.128;9.986;2023-04-26T05:49:37;19.27;;;4.70;;
12369;SDS011;6249;52.128;9.986;2023-04-26T05:52:58;17.87;;;4.87;;
12369;SDS011;6249;52.128;9.986;2023-04-26T05:56:19;10.20;;;4.17;;
12369;SDS011;6249;52.128;9.986;2023-04-26T05:59:40;18.47;;;4.97;;
12369;SDS011;6249;52.128;9.986;2023-04-26T06:03:03;14.27;;;3.83;;
12369;SDS011;6249;52.128;9.986;2023-04-26T06:06:24;9.27;;;3.30;;
12369;SDS011;6249;52.128;9.986;2023-04-26T06:09:47;14.27;;;4.33;;
12369;SDS011;6249;52.128;9.986;2023-04-26T06:13:07;8.53;;;3.20;;
12369;SDS011;6249;52.128;9.986;2023-04-26T06:16:28;25.00;;;5.20;;
12369;SDS011;6249;52.128;9.986;2023-04-26T06:19:51;22.93;;;5.67;;
12369;SDS011;6249;52.128;9.986;2023-04-26T06:23:11;14.23;;;3.80;;
12369;SDS011;6249;52.128;9.986;2023-04-26T06:26:32;10.20;;;4.70;;
12369;SDS011;6249;52.128;9.986;2023-04-26T06:29:52;11.53;;;3.53;;
12369;SDS011;6249;52.128;9.986;2023-04-26T06:33:15;14.73;;;3.53;;
12369;SDS011;6249;52.128;9.986;2023-04-26T06:36:38;19.77;;;4.13;;
12369;SDS011;6249;52.128;9.986;2023-04-26T06:39:59;11.70;;;3.27;;
12369;SDS011;6249;52.128;9.986;2023-04-26T06:43:21;9.97;;;4.17;;
12369;SDS011;6249;52.128;9.986;2023-04-26T06:46:41;18.60;;;4.70;;
12369;SDS011;6249;52.128;9.986;2023-04-26T06:50:02;9.20;;;4.37;;
12369;SDS011;6249;52.128;9.986;2023-04-26T06:53:23;8.90;;;3.80;;
12369;SDS011;6249;52.128;9.986;2023-04-26T06:56:44;14.93;;;3.83;;
12369;SDS011;6249;52.128;9.986;2023-04-26T07:00:05;21.70;;;4.17;;
12369;SDS011;6249;52.128;9.986;2023-04-26T07:03:28;11.70;;;3.10;;
12369;SDS011;6249;52.128;9.986;2023-04-26T07:06:51;10.93;;;3.20;;
12369;SDS011;6249;52.128;9.986;2023-04-26T07:10:12;15.50;;;3.33;;
12369;SDS011;6249;52.128;9.986;2023-04-26T07:13:35;10.37;;;3.27;;
12369;SDS011;6249;52.128;9.986;2023-04-26T07:16:58;10.33;;;2.93;;
12369;SDS011;6249;52.128;9.986;2023-04-26T07:20:18;11.23;;;3.10;;
12369;SDS011;6249;52.128;9.986;2023-04-26T07:23:41;22.17;;;3.97;;
12369;SDS011;6249;52.128;9.986;2023-04-26T07:27:02;13.87;;;3.03;;
12369;SDS011;6249;52.128;9.986;2023-04-26T07:30:24;15.83;;;3.33;;
12369;SDS011;6249;52.128;9.986;2023-04-26T07:33:47;12.60;;;3.17;;
12369;SDS011;6249;52.128;9.986;2023-04-26T07:37:08;16.80;;;4.57;;
12369;SDS011;6249;52.128;9.986;2023-04-26T07:40:31;16.77;;;3.80;;
12369;SDS011;6249;52.128;9.986;2023-04-26T07:43:54;13.83;;;3.03;;
12369;SDS011;6249;52.128;9.986;2023-04-26T07:47:17;15.67;;;3.70;;
12369;SDS011;6249;52.128;9.986;2023-04-26T07:50:37;20.37;;;3.50;;
12369;SDS011;6249;52.128;9.986;2023-04-26T07:53:58;16.57;;;2.70;;
12369;SDS011;6249;52.128;9.986;2023-04-26T07:57:20;6.00;;;2.70;;
12369;SDS011;6249;52.128;9.986;2023-04-26T08:00:41;15.50;;;3.07;;
12369;SDS011;6249;52.128;9.986;2023-04-26T08:04:02;12.23;;;3.37;;
12369;SDS011;6249;52.128;9.986;2023-04-26T08:07:25;15.63;;;3.10;;
12369;SDS011;6249;52.128;9.986;2023-04-26T08:10:48;13.13;;;3.10;;
12369;SDS011;6249;52.128;9.986;2023-04-26T08:14:08;16.23;;;3.50;;
12369;SDS011;6249;52.128;9.986;2023-04-26T08:17:29;13.43;;;3.70;;
12369;SDS011;6249;52.128;9.986;2023-04-26T08:20:51;19.80;;;3.87;;
12369;SDS011;6249;52.128;9.986;2023-04-26T08:24:16;12.27;;;3.93;;
12369;SDS011;6249;52.128;9.986;2023-04-26T08:27:36;12.70;;;3.03;;
12369;SDS011;6249;52.128;9.986;2023-04-26T08:31:00;16.77;;;3.17;;
12369;SDS011;6249;52.128;9.986;2023-04-26T08:34:20;21.00;;;5.00;;
12369;SDS011;6249;52.128;9.986;2023-04-26T08:37:41;11.70;;;2.37;;
12369;SDS011;6249;52.128;9.986;2023-04-26T08:41:04;10.77;;;2.67;;
12369;SDS011;6249;52.128;9.986;2023-04-26T08:44:27;12.03;;;2.83;;
12369;SDS011;6249;52.128;9.986;2023-04-26T08:47:54;18.83;;;5.50;;
12369;SDS011;6249;52.128;9.986;2023-04-26T08:51:20;19.10;;;3.53;;
12369;SDS011;6249;52.128;9.986;2023-04-26T08:54:42;20.93;;;4.50;;
12369;SDS011;6249;52.128;9.986;2023-04-26T08:58:04;11.87;;;3.67;;
12369;SDS011;6249;52.128;9.986;2023-04-26T09:01:27;11.27;;;2.93;;
12369;SDS011;6249;52.128;9.986;2023-04-26T09:04:49;6.67;;;2.23;;
12369;SDS011;6249;52.128;9.986;2023-04-26T09:08:16;5.60;;;2.20;;
12369;SDS011;6249;52.128;9.986;2023-04-26T09:11:56;8.33;;;2.73;;
12369;SDS011;6249;52.128;9.986;2023-04-26T09:15:19;6.17;;;2.10;;
12369;SDS011;6249;52.128;9.986;2023-04-26T09:18:50;10.00;;;2.47;;
12369;SDS011;6249;52.128;9.986;2023-04-26T09:22:16;9.80;;;2.30;;
12369;SDS011;6249;52.128;9.986;2023-04-26T09:26:13;9.13;;;3.70;;
12369;SDS011;6249;52.128;9.986;2023-04-26T09:29:37;19.90;;;3.00;;
12369;SDS011;6249;52.128;9.986;2023-04-26T09:32:58;8.93;;;2.20;;
12369;SDS011;6249;52.128;9.986;2023-04-26T09:36:25;8.30;;;2.10;;
12369;SDS011;6249;52.128;9.986;2023-04-26T09:39:46;8.33;;;2.77;;
12369;SDS011;6249;52.128;9.986;2023-04-26T09:43:08;9.40;;;1.83;;
12369;SDS011;6249;52.128;9.986;2023-04-26T09:46:31;9.43;;;2.40;;
12369;SDS011;6249;52.128;9.986;2023-04-26T09:49:54;6.70;;;1.80;;
12369;SDS011;6249;52.128;9.986;2023-04-26T09:53:26;11.40;;;2.27;;
12369;SDS011;6249;52.128;9.986;2023-04-26T09:56:59;10.57;;;2.87;;
12369;SDS011;6249;52.128;9.986;2023-04-26T10:00:23;5.57;;;1.97;;
12369;SDS011;6249;52.128;9.986;2023-04-26T10:03:44;12.40;;;2.40;;
12369;SDS011;6249;52.128;9.986;2023-04-26T10:07:10;6.80;;;2.27;;
12369;SDS011;6249;52.128;9.986;2023-04-26T10:10:32;6.80;;;1.80;;
12369;SDS011;6249;52.128;9.986;2023-04-26T10:13:53;8.17;;;2.20;;
12369;SDS011;6249;52.128;9.986;2023-04-26T10:17:19;9.53;;;1.90;;
12369;SDS011;6249;52.128;9.986;2023-04-26T10:20:40;7.73;;;2.37;;
12369;SDS011;6249;52.128;9.986;2023-04-26T10:24:06;6.07;;;2.20;;
12369;SDS011;6249;52.128;9.986;2023-04-26T10:31:04;10.80;;;2.33;;
12369;SDS011;6249;52.128;9.986;2023-04-26T10:34:27;7.87;;;1.60;;
12369;SDS011;6249;52.128;9.986;2023-04-26T10:41:27;6.50;;;2.30;;
12369;SDS011;6249;52.128;9.986;2023-04-26T10:44:59;7.77;;;2.10;;
12369;SDS011;6249;52.128;9.986;2023-04-26T10:48:39;6.00;;;2.80;;
12369;SDS011;6249;52.128;9.986;2023-04-26T10:52:10;9.73;;;2.53;;
12369;SDS011;6249;52.128;9.986;2023-04-26T10:55:38;8.27;;;2.00;;
12369;SDS011;6249;52.128;9.986;2023-04-26T10:59:12;5.97;;;2.30;;
12369;SDS011;6249;52.128;9.986;2023-04-26T11:02:55;8.30;;;2.07;;
12369;SDS011;6249;52.128;9.986;2023-04-26T11:06:17;5.90;;;1.90;;
12369;SDS011;6249;52.128;9.986;2023-04-26T11:09:38;8.40;;;1.70;;
12369;SDS011;6249;52.128;9.986;2023-04-26T11:13:01;6.97;;;1.87;;
12369;SDS011;6249;52.128;9.986;2023-04-26T11:16:27;8.67;;;2.10;;
12369;SDS011;6249;52.128;9.986;2023-04-26T11:19:48;9.83;;;2.50;;
12369;SDS011;6249;52.128;9.986;2023-04-26T11:23:08;6.70;;;2.00;;
12369;SDS011;6249;52.128;9.986;2023-04-26T11:26:32;8.13;;;2.30;;
12369;SDS011;6249;52.128;9.986;2023-04-26T11:29:54;6.37;;;2.27;;
12369;SDS011;6249;52.128;9.986;2023-04-26T11:33:15;10.63;;;2.53;;
12369;SDS011;6249;52.128;9.986;2023-04-26T11:36:43;7.13;;;2.10;;
12369;SDS011;6249;52.128;9.986;2023-04-26T11:40:05;7.80;;;1.93;;
12369;SDS011;6249;52.128;9.986;2023-04-26T11:43:33;5.53;;;2.40;;
12369;SDS011;6249;52.128;9.986;2023-04-26T11:46:54;8.53;;;3.63;;
12369;SDS011;6249;52.128;9.986;2023-04-26T11:50:17;12.20;;;3.50;;
12369;SDS011;6249;52.128;9.986;2023-04-26T11:53:40;14.27;;;4.17;;
12369;SDS011;6249;52.128;9.986;2023-04-26T11:57:17;8.40;;;3.17;;
12369;SDS011;6249;52.128;9.986;2023-04-26T12:00:53;10.80;;;3.40;;
12369;SDS011;6249;52.128;9.986;2023-04-26T12:04:15;6.70;;;2.30;;
12369;SDS011;6249;52.128;9.986;2023-04-26T12:07:36;14.03;;;2.93;;
12369;SDS011;6249;52.128;9.986;2023-04-26T12:11:00;8.00;;;2.10;;
12369;SDS011;6249;52.128;9.986;2023-04-26T12:14:36;9.23;;;2.60;;
12369;SDS011;6249;52.128;9.986;2023-04-26T12:18:05;4.30;;;2.03;;
12369;SDS011;6249;52.128;9.986;2023-04-26T12:21:27;6.03;;;1.90;;
12369;SDS011;6249;52.128;9.986;2023-04-26T12:24:48;7.63;;;1.93;;
12369;SDS011;6249;52.128;9.986;2023-04-26T12:28:09;8.60;;;2.20;;
12369;SDS011;6249;52.128;9.986;2023-04-26T12:31:32;15.30;;;2.50;;
12369;SDS011;6249;52.128;9.986;2023-04-26T12:34:55;5.40;;;1.63;;
12369;SDS011;6249;52.128;9.986;2023-04-26T12:38:18;5.97;;;1.40;;
12369;SDS011;6249;52.128;9.986;2023-04-26T12:41:39;7.83;;;2.33;;
12369;SDS011;6249;52.128;9.986;2023-04-26T12:45:03;13.23;;;3.20;;
12369;SDS011;6249;52.128;9.986;2023-04-26T12:48:24;7.17;;;2.53;;
12369;SDS011;6249;52.128;9.986;2023-04-26T12:51:48;6.70;;;2.43;;
12369;SDS011;6249;52.128;9.986;2023-04-26T12:55:11;8.37;;;2.43;;
12369;SDS011;6249;52.128;9.986;2023-04-26T12:58:35;11.50;;;2.00;;
12369;SDS011;6249;52.128;9.986;2023-04-26T13:01:55;10.20;;;2.20;;
12369;SDS011;6249;52.128;9.986;2023-04-26T13:05:16;5.17;;;1.80;;
12369;SDS011;6249;52.128;9.986;2023-04-26T13:08:37;6.27;;;1.80;;
12369;SDS011;6249;52.128;9.986;2023-04-26T13:11:58;5.60;;;2.10;;
12369;SDS011;6249;52.128;9.986;2023-04-26T13:15:18;7.23;;;2.50;;
12369;SDS011;6249;52.128;9.986;2023-04-26T13:18:46;5.40;;;2.27;;
12369;SDS011;6249;52.128;9.986;2023-04-26T13:22:06;7.17;;;2.20;;
12369;SDS011;6249;52.128;9.986;2023-04-26T13:25:30;5.40;;;1.97;;
12369;SDS011;6249;52.128;9.986;2023-04-26T13:28:53;9.93;;;3.20;;
12369;SDS011;6249;52.128;9.986;2023-04-26T13:32:14;7.83;;;2.33;;
12369;SDS011;6249;52.128;9.986;2023-04-26T13:35:37;6.40;;;1.90;;
12369;SDS011;6249;52.128;9.986;2023-04-26T13:39:02;5.10;;;2.00;;
12369;SDS011;6249;52.128;9.986;2023-04-26T13:42:26;9.97;;;2.50;;
12369;SDS011;6249;52.128;9.986;2023-04-26T13:45:47;6.30;;;1.93;;
12369;SDS011;6249;52.128;9.986;2023-04-26T13:49:09;6.80;;;2.07;;
12369;SDS011;6249;52.128;9.986;2023-04-26T13:52:30;5.73;;;1.77;;
12369;SDS011;6249;52.128;9.986;2023-04-26T13:55:51;9.43;;;1.97;;
12369;SDS011;6249;52.128;9.986;2023-04-26T13:59:11;6.60;;;2.37;;
12369;SDS011;6249;52.128;9.986;2023-04-26T14:02:34;7.80;;;2.63;;
12369;SDS011;6249;52.128;9.986;2023-04-26T14:05:55;5.97;;;2.50;;
12369;SDS011;6249;52.128;9.986;2023-04-26T14:09:17;6.23;;;2.40;;
12369;SDS011;6249;52.128;9.986;2023-04-26T14:12:40;4.80;;;2.17;;
12369;SDS011;6249;52.128;9.986;2023-04-26T14:16:01;4.97;;;2.30;;
12369;SDS011;6249;52.128;9.986;2023-04-26T14:19:22;10.30;;;3.07;;
12369;SDS011;6249;52.128;9.986;2023-04-26T14:22:45;9.40;;;2.40;;
12369;SDS011;6249;52.128;9.986;2023-04-26T14:26:09;6.43;;;2.80;;
12369;SDS011;6249;52.128;9.986;2023-04-26T14:29:32;5.07;;;2.40;;
12369;SDS011;6249;52.128;9.986;2023-04-26T14:32:52;9.73;;;2.70;;
12369;SDS011;6249;52.128;9.986;2023-04-26T14:36:13;9.90;;;3.27;;
12369;SDS011;6249;52.128;9.986;2023-04-26T14:39:34;6.70;;;3.00;;
12369;SDS011;6249;52.128;9.986;2023-04-26T14:42:56;6.20;;;2.50;;
12369;SDS011;6249;52.128;9.986;2023-04-26T14:46:19;8.27;;;3.50;;
12369;SDS011;6249;52.128;9.986;2023-04-26T14:49:39;6.87;;;3.03;;
12369;SDS011;6249;52.128;9.986;2023-04-26T14:53:00;7.73;;;3.60;;
12369;SDS011;6249;52.128;9.986;2023-04-26T14:56:21;10.60;;;3.10;;
12369;SDS011;6249;52.128;9.986;2023-04-26T14:59:42;11.43;;;2.30;;
12369;SDS011;6249;52.128;9.986;2023-04-26T15:03:03;13.07;;;3.33;;
12369;SDS011;6249;52.128;9.986;2023-04-26T15:06:24;9.73;;;2.77;;
12369;SDS011;6249;52.128;9.986;2023-04-26T15:09:45;8.10;;;2.93;;
12369;SDS011;6249;52.128;9.986;2023-04-26T15:13:06;11.33;;;2.97;;
12369;SDS011;6249;52.128;9.986;2023-04-26T15:16:29;6.37;;;2.43;;
12369;SDS011;6249;52.128;9.986;2023-04-26T15:19:50;5.87;;;2.67;;
12369;SDS011;6249;52.128;9.986;2023-04-26T15:23:15;5.17;;;2.10;;
12369;SDS011;6249;52.128;9.986;2023-04-26T15:26:38;16.40;;;3.00;;
12369;SDS011;6249;52.128;9.986;2023-04-26T15:29:58;10.37;;;3.03;;
12369;SDS011;6249;52.128;9.986;2023-04-26T15:33:19;6.60;;;3.00;;
12369;SDS011;6249;52.128;9.986;2023-04-26T15:36:40;11.03;;;2.87;;
12369;SDS011;6249;52.128;9.986;2023-04-26T15:40:00;9.63;;;3.00;;
12369;SDS011;6249;52.128;9.986;2023-04-26T15:43:21;10.23;;;2.70;;
12369;SDS011;6249;52.128;9.986;2023-04-26T15:46:49;8.50;;;2.40;;
12369;SDS011;6249;52.128;9.986;2023-04-26T15:50:12;11.50;;;2.90;;
12369;SDS011;6249;52.128;9.986;2023-04-26T15:53:33;7.03;;;2.67;;
12369;SDS011;6249;52.128;9.986;2023-04-26T15:56:54;7.10;;;3.00;;
12369;SDS011;6249;52.128;9.986;2023-04-26T16:00:19;5.43;;;2.60;;
12369;SDS011;6249;52.128;9.986;2023-04-26T16:03:40;6.90;;;2.77;;
12369;SDS011;6249;52.128;9.986;2023-04-26T16:07:01;7.27;;;2.93;;
12369;SDS011;6249;52.128;9.986;2023-04-26T16:10:22;9.90;;;3.13;;
12369;SDS011;6249;52.128;9.986;2023-04-26T16:13:42;10.60;;;3.00;;
12369;SDS011;6249;52.128;9.986;2023-04-26T16:17:03;7.67;;;2.37;;
12369;SDS011;6249;52.128;9.986;2023-04-26T16:20:26;6.57;;;2.27;;
12369;SDS011;6249;52.128;9.986;2023-04-26T16:23:50;6.63;;;3.00;;
12369;SDS011;6249;52.128;9.986;2023-04-26T16:27:11;7.53;;;3.17;;
12369;SDS011;6249;52.128;9.986;2023-04-26T16:30:31;16.10;;;2.90;;
12369;SDS011;6249;52.128;9.986;2023-04-26T16:33:54;6.03;;;2.63;;
12369;SDS011;6249;52.128;9.986;2023-04-26T16:37:15;7.80;;;2.70;;
12369;SDS011;6249;52.128;9.986;2023-04-26T16:40:35;10.87;;;2.83;;
12369;SDS011;6249;52.128;9.986;2023-04-26T16:43:56;6.23;;;2.60;;
12369;SDS011;6249;52.128;9.986;2023-04-26T16:47:17;6.63;;;2.50;;
12369;SDS011;6249;52.128;9.986;2023-04-26T16:50:37;7.83;;;2.87;;
12369;SDS011;6249;52.128;9.986;2023-04-26T16:54:00;9.53;;;2.87;;
12369;SDS011;6249;52.128;9.986;2023-04-26T16:57:20;8.07;;;3.33;;
12369;SDS011;6249;52.128;9.986;2023-04-26T17:00:41;8.70;;;3.13;;
12369;SDS011;6249;52.128;9.986;2023-04-26T17:04:07;8.43;;;3.13;;
12369;SDS011;6249;52.128;9.986;2023-04-26T17:07:30;7.53;;;3.07;;
12369;SDS011;6249;52.128;9.986;2023-04-26T17:10:53;6.43;;;3.10;;
12369;SDS011;6249;52.128;9.986;2023-04-26T17:14:13;15.67;;;3.40;;
12369;SDS011;6249;52.128;9.986;2023-04-26T17:17:36;13.60;;;4.40;;
12369;SDS011;6249;52.128;9.986;2023-04-26T17:20:57;11.40;;;4.17;;
12369;SDS011;6249;52.128;9.986;2023-04-26T17:24:17;7.60;;;4.00;;
12369;SDS011;6249;52.128;9.986;2023-04-26T17:27:38;15.47;;;4.83;;
12369;SDS011;6249;52.128;9.986;2023-04-26T17:30:59;9.93;;;3.57;;
12369;SDS011;6249;52.128;9.986;2023-04-26T17:34:19;7.37;;;3.30;;
12369;SDS011;6249;52.128;9.986;2023-04-26T17:37:40;11.40;;;4.17;;
12369;SDS011;6249;52.128;9.986;2023-04-26T17:41:01;12.13;;;3.70;;
12369;SDS011;6249;52.128;9.986;2023-04-26T17:44:21;8.00;;;3.63;;
12369;SDS011;6249;52.128;9.986;2023-04-26T17:47:44;6.60;;;3.60;;
12369;SDS011;6249;52.128;9.986;2023-04-26T17:51:05;10.23;;;4.27;;
12369;SDS011;6249;52.128;9.986;2023-04-26T17:54:25;11.90;;;3.80;;
12369;SDS011;6249;52.128;9.986;2023-04-26T17:57:50;10.90;;;3.63;;
12369;SDS011;6249;52.128;9.986;2023-04-26T18:01:11;13.93;;;3.50;;
12369;SDS011;6249;52.128;9.986;2023-04-26T18:04:32;7.23;;;2.83;;
12369;SDS011;6249;52.128;9.986;2023-04-26T18:07:52;8.00;;;4.30;;
12369;SDS011;6249;52.128;9.986;2023-04-26T18:11:13;11.83;;;4.10;;
12369;SDS011;6249;52.128;9.986;2023-04-26T18:14:33;8.30;;;3.67;;
12369;SDS011;6249;52.128;9.986;2023-04-26T18:17:57;8.50;;;4.30;;
12369;SDS011;6249;52.128;9.986;2023-04-26T18:21:18;11.23;;;3.97;;
12369;SDS011;6249;52.128;9.986;2023-04-26T18:24:38;10.17;;;3.80;;
12369;SDS011;6249;52.128;9.986;2023-04-26T18:27:59;10.00;;;4.20;;
12369;SDS011;6249;52.128;9.986;2023-04-26T18:31:20;7.93;;;3.10;;
12369;SDS011;6249;52.128;9.986;2023-04-26T18:34:41;6.10;;;3.13;;
12369;SDS011;6249;52.128;9.986;2023-04-26T18:38:03;10.93;;;4.33;;
12369;SDS011;6249;52.128;9.986;2023-04-26T18:41:23;10.13;;;3.90;;
12369;SDS011;6249;52.128;9.986;2023-04-26T18:44:46;15.43;;;5.27;;
12369;SDS011;6249;52.128;9.986;2023-04-26T18:48:09;21.63;;;4.40;;
12369;SDS011;6249;52.128;9.986;2023-04-26T18:51:30;8.27;;;4.20;;
12369;SDS011;6249;52.128;9.986;2023-04-26T18:54:51;11.20;;;3.90;;
12369;SDS011;6249;52.128;9.986;2023-04-26T18:58:12;7.33;;;3.97;;
12369;SDS011;6249;52.128;9.986;2023-04-26T19:01:35;8.90;;;3.50;;
12369;SDS011;6249;52.128;9.986;2023-04-26T19:04:59;12.93;;;4.20;;
12369;SDS011;6249;52.128;9.986;2023-04-26T19:08:24;10.57;;;3.97;;
12369;SDS011;6249;52.128;9.986;2023-04-26T19:11:47;9.30;;;4.03;;
12369;SDS011;6249;52.128;9.986;2023-04-26T19:15:08;8.50;;;3.57;;
12369;SDS011;6249;52.128;9.986;2023-04-26T19:18:29;10.10;;;3.67;;
12369;SDS011;6249;52.128;9.986;2023-04-26T19:21:50;8.77;;;3.73;;
12369;SDS011;6249;52.128;9.986;2023-04-26T19:25:13;11.97;;;3.70;;
12369;SDS011;6249;52.128;9.986;2023-04-26T19:28:34;19.13;;;4.33;;
12369;SDS011;6249;52.128;9.986;2023-04-26T19:31:56;7.03;;;3.60;;
12369;SDS011;6249;52.128;9.986;2023-04-26T19:35:18;8.50;;;3.47;;
12369;SDS011;6249;52.128;9.986;2023-04-26T19:38:39;8.70;;;3.27;;
12369;SDS011;6249;52.128;9.986;2023-04-26T19:42:00;12.30;;;3.93;;
12369;SDS011;6249;52.128;9.986;2023-04-26T19:45:22;19.60;;;5.50;;
12369;SDS011;6249;52.128;9.986;2023-04-26T19:48:42;14.70;;;5.13;;
12369;SDS011;6249;52.128;9.986;2023-04-26T19:52:03;11.07;;;3.37;;
12369;SDS011;6249;52.128;9.986;2023-04-26T19:55:24;9.30;;;4.07;;
12369;SDS011;6249;52.128;9.986;2023-04-26T19:58:45;11.97;;;3.70;;
12369;SDS011;6249;52.128;9.986;2023-04-26T20:02:06;9.60;;;3.30;;
12369;SDS011;6249;52.128;9.986;2023-04-26T20:05:27;10.70;;;4.10;;
12369;SDS011;6249;52.128;9.986;2023-04-26T20:08:48;8.40;;;4.10;;
12369;SDS011;6249;52.128;9.986;2023-04-26T20:12:08;9.73;;;4.40;;
12369;SDS011;6249;52.128;9.986;2023-04-26T20:15:31;9.83;;;3.73;;
12369;SDS011;6249;52.128;9.986;2023-04-26T20:18:54;11.13;;;2.80;;
12369;SDS011;6249;52.128;9.986;2023-04-26T20:22:15;8.00;;;3.93;;
12369;SDS011;6249;52.128;9.986;2023-04-26T20:25:36;14.10;;;3.80;;
12369;SDS011;6249;52.128;9.986;2023-04-26T20:28:56;10.07;;;4.10;;
12369;SDS011;6249;52.128;9.986;2023-04-26T20:32:20;9.07;;;3.93;;
12369;SDS011;6249;52.128;9.986;2023-04-26T20:35:40;11.20;;;4.80;;